Time;durP1;ratioP1;P1;durP2;ratioP2;P2;SDS_P1;SDS_P2;PMS_P1;PMS_P2;Temp;Humidity;BMP_temperature;BMP_pressure;BME280_temperature;BME280_humidity;BME280_pressure;Samples;Min_cycle;Max_cycle;Signal;HPM_P1;HPM_P2
2023/03/18 07:11:49;;;;;;;3.58;1.85;;;;;;;12.90;50.45;96227.44;2100091;27;20581;-62
2023/03/18 07:12:51;;;;;;;10.52;1.90;;;;;;;12.94;51.29;96217.63;2097350;28;20195;-62
2023/03/18 07:13:52;;;;;;;2.78;1.40;;;;;;;13.31;49.02;96222.38;2090742;28;20196;-63
2023/03/18 07:14:54;;;;;;;3.65;1.25;;;;;;;13.44;49.25;96232.97;2082756;28;20197;-62
2023/03/18 07:15:55;;;;;;;7.53;1.48;;;;;;;13.56;49.08;96229.56;2082501;28;20209;-62
2023/03/18 07:16:57;;;;;;;5.88;1.70;;;;;;;13.46;49.36;96229.31;2081950;28;20809;-62
2023/03/18 07:17:59;;;;;;;5.25;1.58;;;;;;;13.84;48.68;96228.66;2079027;28;20196;-62
2023/03/18 07:19:01;;;;;;;7.97;1.70;;;;;;;13.91;49.94;96229.09;2082447;28;20235;-62
2023/03/18 07:20:04;;;;;;;4.32;1.75;;;;;;;13.55;50.76;96228.72;2090315;28;20207;-63
2023/03/18 07:21:05;;;;;;;8.93;2.15;;;;;;;14.02;51.01;96236.28;2087193;28;20197;-61
2023/03/18 07:22:07;;;;;;;4.70;2.08;;;;;;;13.98;49.27;96219.88;2089343;28;20203;-60
2023/03/18 07:23:09;;;;;;;5.20;1.92;;;;;;;14.20;51.24;96235.06;2090603;28;20196;-60
2023/03/18 07:24:11;;;;;;;3.88;1.65;;;;;;;14.00;52.08;96238.97;2086695;28;20234;-61
2023/03/18 07:25:13;;;;;;;6.22;1.60;;;;;;;13.54;51.55;96234.06;2090755;28;20192;-62
2023/03/18 07:26:14;;;;;;;5.00;1.95;;;;;;;13.80;49.44;96234.19;2089228;28;20548;-61
2023/03/18 07:27:16;;;;;;;10.35;1.67;;;;;;;14.20;49.04;96228.97;2088714;28;20469;-61
2023/03/18 07:28:17;;;;;;;5.07;1.90;;;;;;;14.85;47.14;96235.19;2093062;28;20643;-60
2023/03/18 07:29:19;;;;;;;6.10;1.45;;;;;;;15.07;46.44;96237.19;2089549;28;20231;-60
2023/03/18 07:30:20;;;;;;;5.15;1.55;;;;;;;14.97;46.70;96239.59;2090187;28;20336;-63
2023/03/18 07:31:24;;;;;;;8.48;1.35;;;;;;;15.40;44.44;96240.19;2091380;28;20213;-63
2023/03/18 07:32:25;;;;;;;3.65;1.50;;;;;;;15.67;43.99;96235.59;2091040;28;20208;-63
2023/03/18 07:33:27;;;;;;;3.83;1.50;;;;;;;15.98;43.84;96237.84;2091809;28;20200;-63
2023/03/18 07:34:29;;;;;;;2.70;1.30;;;;;;;15.87;43.84;96236.00;2088880;28;20224;-63
2023/03/18 07:35:31;;;;;;;3.50;1.70;;;;;;;16.03;43.69;96245.41;2089788;28;20224;-63
2023/03/18 07:36:33;;;;;;;3.13;1.50;;;;;;;16.22;42.96;96240.44;2090993;28;20547;-63
2023/03/18 07:37:34;;;;;;;2.92;1.45;;;;;;;16.30;42.19;96240.75;2090964;28;20636;-63
2023/03/18 07:38:36;;;;;;;3.90;1.20;;;;;;;16.65;42.85;96242.50;2089950;28;20222;-62
2023/03/18 07:39:37;;;;;;;2.05;1.20;;;;;;;16.31;43.22;96231.03;2086785;28;20248;-62
2023/03/18 07:40:39;;;;;;;3.13;1.30;;;;;;;16.27;43.17;96240.94;2087020;28;20204;-63
2023/03/18 07:41:40;;;;;;;4.10;1.30;;;;;;;15.91;41.96;96224.28;2090012;28;20699;-63
2023/03/18 07:42:42;;;;;;;3.90;1.50;;;;;;;16.40;42.72;96240.88;2090607;28;20404;-63
2023/03/18 07:43:43;;;;;;;4.45;1.58;;;;;;;16.51;42.71;96241.91;2086352;28;20201;-62
2023/03/18 07:44:45;;;;;;;4.68;1.70;;;;;;;16.76;42.41;96244.34;2088285;28;20200;-62
2023/03/18 07:45:47;;;;;;;3.10;1.30;;;;;;;16.55;42.96;96252.06;2092304;28;20199;-62
2023/03/18 07:46:48;;;;;;;3.58;1.45;;;;;;;16.70;42.18;96251.88;2092171;28;20199;-63
2023/03/18 07:47:49;;;;;;;6.90;1.30;;;;;;;16.94;41.96;96244.75;2089634;28;20600;-62
2023/03/18 07:48:51;;;;;;;2.60;1.30;;;;;;;16.92;41.50;96246.66;2090693;28;20337;-60
2023/03/18 07:49:53;;;;;;;3.90;1.35;;;;;;;17.06;41.85;96236.88;2091473;28;20227;-61
2023/03/18 07:50:54;;;;;;;7.57;1.98;;;;;;;17.15;41.04;96241.41;2086693;28;21141;-60
2023/03/18 07:51:56;;;;;;;3.05;1.73;;;;;;;17.23;40.78;96244.31;2086713;28;20201;-63
2023/03/18 07:52:58;;;;;;;5.20;1.50;;;;;;;16.93;41.33;96243.06;2088186;28;20727;-61
2023/03/18 07:54:00;;;;;;;3.38;1.20;;;;;;;17.13;41.01;96241.53;2089491;28;20323;-61
2023/03/18 07:55:01;;;;;;;3.15;1.55;;;;;;;17.40;40.92;96248.25;2090926;28;20550;-61
2023/03/18 07:56:03;;;;;;;4.10;2.13;;;;;;;17.51;40.10;96250.06;2090451;28;20555;-61
2023/03/18 07:57:05;;;;;;;5.53;1.80;;;;;;;17.18;40.34;96246.47;2088856;28;20655;-61
2023/03/18 07:58:07;;;;;;;7.53;2.10;;;;;;;17.67;39.83;96259.41;2092173;28;20192;-61
2023/03/18 07:59:09;;;;;;;3.03;1.40;;;;;;;17.25;40.63;96249.47;2089830;28;20719;-61
2023/03/18 08:00:11;;;;;;;7.50;1.40;;;;;;;17.12;40.80;96239.84;2087084;28;20197;-60
2023/03/18 08:01:14;;;;;;;5.03;2.10;;;;;;;17.20;40.72;96251.63;2089330;28;20200;-61
2023/03/18 08:02:16;;;;;;;6.95;1.63;;;;;;;17.15;40.40;96246.69;2091154;28;20282;-61
2023/03/18 08:03:18;;;;;;;4.20;1.25;;;;;;;17.17;39.96;96254.50;2086964;28;20242;-60
2023/03/18 08:04:19;;;;;;;4.03;1.30;;;;;;;17.09;40.09;96250.66;2087885;28;20262;-60
2023/03/18 08:05:21;;;;;;;4.22;1.58;;;;;;;17.23;39.99;96254.00;2091970;28;20641;-60
2023/03/18 08:06:24;;;;;;;4.63;1.10;;;;;;;17.41;39.70;96257.88;2091664;28;20192;-61
2023/03/18 08:07:25;;;;;;;6.20;1.90;;;;;;;17.66;39.80;96248.03;2090797;28;20196;-61
2023/03/18 08:08:27;;;;;;;6.13;1.60;;;;;;;17.65;38.57;96248.97;2090569;28;20232;-61
2023/03/18 08:09:29;;;;;;;4.93;1.33;;;;;;;17.56;39.54;96247.91;2088828;28;20231;-61
2023/03/18 08:10:30;;;;;;;2.58;1.30;;;;;;;17.34;39.77;96254.00;2089936;28;20199;-61
2023/03/18 08:11:32;;;;;;;6.28;1.00;;;;;;;17.60;39.15;96241.41;2090006;28;20315;-61
2023/03/18 08:12:33;;;;;;;2.83;1.20;;;;;;;17.61;39.28;96245.72;2090015;28;20644;-61
2023/03/18 08:13:52;;;;;;;4.00;1.50;;;;;;;17.90;39.13;96247.84;2088264;28;20200;-60
2023/03/18 08:14:53;;;;;;;9.10;1.38;;;;;;;17.84;38.53;96258.91;2090140;28;20197;-61
2023/03/18 08:15:55;;;;;;;4.57;1.38;;;;;;;17.92;38.87;96260.94;2089039;28;20201;-60
2023/03/18 08:16:56;;;;;;;3.13;1.23;;;;;;;17.70;38.95;96252.09;2086778;28;20246;-60
2023/03/18 08:17:58;;;;;;;3.72;1.33;;;;;;;17.61;39.42;96251.00;2087901;28;20204;-61
2023/03/18 08:18:59;;;;;;;6.93;1.45;;;;;;;17.71;39.19;96252.91;2089354;28;20219;-61
2023/03/18 08:20:01;;;;;;;8.55;1.67;;;;;;;17.79;39.11;96243.41;2088663;28;20219;-60
2023/03/18 08:21:03;;;;;;;4.93;1.92;;;;;;;17.92;38.99;96235.34;2088589;28;20198;-60
2023/03/18 08:22:05;;;;;;;4.15;1.60;;;;;;;18.55;37.92;96252.31;2090907;28;20203;-60
2023/03/18 08:23:07;;;;;;;2.05;1.05;;;;;;;18.39;38.10;96256.22;2085024;28;20205;-60
2023/03/18 08:24:09;;;;;;;2.13;1.10;;;;;;;18.76;37.88;96253.16;2085426;28;20587;-60
2023/03/18 08:25:12;;;;;;;7.28;1.52;;;;;;;19.37;36.96;96248.94;2084126;28;20201;-61
2023/03/18 08:26:13;;;;;;;10.40;1.63;;;;;;;19.05;37.13;96260.47;2081243;28;20304;-61
2023/03/18 08:27:15;;;;;;;2.20;1.10;;;;;;;19.33;36.79;96244.88;2082876;28;20847;-61
2023/03/18 08:28:17;;;;;;;3.83;1.50;;;;;;;19.60;36.17;96251.38;2086392;28;20193;-61
2023/03/18 08:29:18;;;;;;;3.70;1.10;;;;;;;19.28;36.87;96255.03;2086161;28;20248;-61
2023/03/18 08:30:24;;;;;;;3.30;1.40;;;;;;;19.56;36.44;96263.22;2084781;28;20220;-61
2023/03/18 08:31:25;;;;;;;3.08;1.33;;;;;;;19.38;36.95;96253.25;2085379;28;20666;-61
2023/03/18 08:32:26;;;;;;;3.38;1.10;;;;;;;19.28;36.49;96262.97;2083271;28;20209;-61
2023/03/18 08:33:28;;;;;;;7.93;1.30;;;;;;;19.82;36.28;96258.34;2083418;28;20192;-61
2023/03/18 08:34:29;;;;;;;2.38;1.35;;;;;;;20.63;35.53;96256.44;2085110;28;20692;-61
2023/03/18 08:35:31;;;;;;;3.85;1.13;;;;;;;20.41;35.58;96261.06;2084907;28;20236;-61
2023/03/18 08:36:35;;;;;;;6.43;1.30;;;;;;;20.61;35.49;96261.91;2081597;28;20189;-61
2023/03/18 08:37:36;;;;;;;5.93;1.52;;;;;;;21.22;34.33;96257.22;2083205;28;20687;-61
2023/03/18 08:38:38;;;;;;;4.13;0.90;;;;;;;21.47;33.06;96261.03;2083567;28;20239;-61
2023/03/18 08:39:42;;;;;;;3.92;1.40;;;;;;;20.58;34.73;96251.56;2085100;28;20652;-61
2023/03/18 08:40:46;;;;;;;3.58;1.35;;;;;;;20.84;34.58;96253.69;2084069;28;20740;-62
2023/03/18 08:41:48;;;;;;;7.95;1.35;;;;;;;21.77;33.64;96248.47;2084318;28;20224;-62
2023/03/18 08:42:49;;;;;;;3.00;1.10;;;;;;;21.34;33.72;96256.06;2084826;28;20233;-62
2023/03/18 08:43:51;;;;;;;4.75;1.50;;;;;;;21.19;34.40;96247.72;2083236;28;20201;-62
2023/03/18 08:44:53;;;;;;;5.43;1.38;;;;;;;22.50;32.14;96252.09;2084247;28;20196;-62
2023/03/18 08:45:55;;;;;;;5.65;1.45;;;;;;;21.33;33.08;96241.13;2084727;28;20688;-62
2023/03/18 08:46:56;;;;;;;3.28;1.05;;;;;;;21.31;33.35;96255.53;2085033;28;20208;-62
2023/03/18 08:47:59;;;;;;;3.47;1.00;;;;;;;21.61;33.18;96245.63;2080989;28;20200;-62
2023/03/18 08:49:00;;;;;;;6.10;1.20;;;;;;;21.34;33.14;96255.22;2080265;28;20229;-62
2023/03/18 08:50:03;;;;;;;4.97;1.30;;;;;;;21.49;33.78;96247.63;2083319;28;20281;-61
2023/03/18 08:51:09;;;;;;;3.80;1.10;;;;;;;21.77;32.83;96252.97;2080803;28;20245;-61
2023/03/18 08:52:11;;;;;;;7.78;1.40;;;;;;;21.29;33.51;96246.84;2083804;28;20209;-61
2023/03/18 08:53:13;;;;;;;3.50;1.25;;;;;;;21.72;33.33;96248.09;2084937;28;20196;-61
2023/03/18 08:54:15;;;;;;;2.88;1.05;;;;;;;20.60;33.67;96251.44;2085335;28;20277;-61
2023/03/18 08:55:16;;;;;;;3.03;1.38;;;;;;;21.07;33.62;96251.53;2084585;28;20207;-62
2023/03/18 08:56:18;;;;;;;3.38;1.13;;;;;;;21.07;33.81;96253.34;2085134;28;20197;-62
2023/03/18 08:57:19;;;;;;;5.35;1.20;;;;;;;20.93;33.77;96252.81;2082926;28;20207;-62
2023/03/18 08:58:21;;;;;;;4.55;1.25;;;;;;;21.91;32.80;96251.63;2085698;28;20199;-62
2023/03/18 08:59:22;;;;;;;4.43;1.30;;;;;;;21.92;33.00;96246.16;2084576;28;20247;-60
2023/03/18 09:00:25;;;;;;;3.72;1.10;;;;;;;21.61;33.31;96256.25;2084959;28;20734;-60
2023/03/18 09:01:26;;;;;;;3.58;1.30;;;;;;;21.15;33.32;96258.75;2083066;28;20702;-61
2023/03/18 09:02:28;;;;;;;7.57;1.33;;;;;;;20.86;34.31;96257.84;2085140;28;20201;-61
2023/03/18 09:03:30;;;;;;;5.22;1.20;;;;;;;20.78;34.77;96249.75;2084842;28;20536;-61
2023/03/18 09:04:31;;;;;;;5.28;1.42;;;;;;;20.82;34.73;96255.63;2080529;28;20319;-61
2023/03/18 09:05:33;;;;;;;4.15;1.42;;;;;;;20.37;34.51;96251.72;2080860;28;20833;-62
2023/03/18 09:06:35;;;;;;;2.22;1.10;;;;;;;19.97;34.72;96257.94;2083810;28;20209;-62
2023/03/18 09:07:37;;;;;;;2.30;1.15;;;;;;;20.02;34.81;96248.63;2085598;28;20239;-62
2023/03/18 09:08:38;;;;;;;3.90;1.00;;;;;;;19.86;34.74;96250.97;2083959;28;20228;-62
2023/03/18 09:09:40;;;;;;;3.47;1.30;;;;;;;19.85;35.54;96244.81;2083397;28;20192;-61
2023/03/18 09:10:45;;;;;;;6.55;1.40;;;;;;;19.82;35.30;96252.16;2085185;28;20648;-61
2023/03/18 09:11:46;;;;;;;2.45;1.10;;;;;;;20.26;34.69;96242.06;2083697;28;20236;-62
2023/03/18 09:12:48;;;;;;;5.65;1.40;;;;;;;20.70;34.19;96244.31;2084310;28;20213;-62
2023/03/18 09:13:51;;;;;;;3.83;1.20;;;;;;;20.78;33.99;96228.53;2083744;28;20903;-62
2023/03/18 09:14:52;;;;;;;4.43;1.05;;;;;;;20.93;33.97;96246.69;2080915;28;20197;-61
2023/03/18 09:15:54;;;;;;;3.58;1.40;;;;;;;20.55;33.76;96243.88;2082466;28;20197;-62
2023/03/18 09:16:55;;;;;;;5.65;1.58;;;;;;;20.58;33.96;96242.78;2084833;28;20216;-62
2023/03/18 09:17:57;;;;;;;4.70;1.55;;;;;;;20.58;33.98;96233.00;2085360;28;20662;-62
2023/03/18 09:19:12;;;;;;;5.97;1.00;;;;;;;20.36;34.16;96240.25;2083147;28;20275;-62
2023/03/18 09:20:15;;;;;;;2.78;1.00;;;;;;;20.44;34.46;96236.91;2082144;28;20228;-62
2023/03/18 09:21:18;;;;;;;2.95;1.20;;;;;;;20.88;34.31;96233.81;2082847;28;20200;-62
2023/03/18 09:22:20;;;;;;;6.47;1.58;;;;;;;20.97;33.81;96232.13;2085474;28;20188;-62
2023/03/18 09:23:22;;;;;;;3.33;1.00;;;;;;;20.16;34.45;96238.56;2080566;28;20201;-61
2023/03/18 09:24:23;;;;;;;3.47;1.27;;;;;;;20.37;34.46;96238.47;2080718;28;20256;-62
2023/03/18 09:25:25;;;;;;;4.75;1.10;;;;;;;20.87;33.95;96242.75;2082523;28;20560;-62
2023/03/18 09:26:27;;;;;;;4.18;1.15;;;;;;;20.43;34.63;96239.69;2082546;28;20197;-61
2023/03/18 09:27:28;;;;;;;3.95;1.10;;;;;;;20.53;34.50;96240.53;2084729;28;20648;-62
2023/03/18 09:28:30;;;;;;;4.20;1.55;;;;;;;21.21;33.19;96248.41;2081411;28;20675;-61
2023/03/18 09:29:31;;;;;;;5.43;1.10;;;;;;;21.20;33.21;96240.59;2098431;28;20250;-61
2023/03/18 09:30:33;;;;;;;6.97;1.40;;;;;;;21.40;33.35;96232.56;2096370;28;20196;-62
2023/03/18 09:31:36;;;;;;;8.00;1.55;;;;;;;21.81;33.00;96235.75;2081834;28;20193;-62
2023/03/18 09:32:37;;;;;;;4.97;1.17;;;;;;;22.67;32.58;96229.13;2083843;28;20299;-62
2023/03/18 09:33:40;;;;;;;7.40;1.27;;;;;;;23.01;32.27;96220.38;2084132;28;20208;-62
2023/03/18 09:34:43;;;;;;;4.70;1.10;;;;;;;23.62;31.49;96221.22;2100058;28;20203;-62
2023/03/18 09:35:45;;;;;;;6.68;1.13;;;;;;;23.63;30.95;96219.41;2098624;28;20692;-62
2023/03/18 09:36:49;;;;;;;4.80;1.10;;;;;;;23.76;31.22;96234.94;2099848;28;20219;-62
2023/03/18 09:37:52;;;;;;;2.83;1.13;;;;;;;24.51;30.62;96226.13;2095600;28;20199;-61
2023/03/18 09:38:54;;;;;;;4.35;1.60;;;;;;;24.86;30.50;96221.47;2080920;28;20196;-61
2023/03/18 09:39:56;;;;;;;9.63;1.55;;;;;;;24.57;30.47;96229.94;2085264;28;20196;-61
2023/03/18 09:41:09;;;;;;;5.40;1.38;;;;;;;25.14;30.03;96225.59;2085175;28;20208;-62
2023/03/18 09:42:22;;;;;;;2.78;1.20;;;;;;;25.17;29.63;96201.22;2080998;28;20201;-61
2023/03/18 09:43:57;;;;;;;2.58;1.10;;;;;;;24.68;29.28;96229.66;2085522;28;20627;-61
2023/03/18 09:45:02;;;;;;;5.53;1.35;;;;;;;23.38;30.35;96226.44;2084482;28;20219;-61
2023/03/18 09:46:17;;;;;;;2.35;0.90;;;;;;;24.06;30.51;96224.72;2083751;28;20236;-62
2023/03/18 09:47:50;;;;;;;2.15;1.10;;;;;;;23.95;30.37;96225.88;2084529;28;20193;-61
2023/03/18 09:49:16;;;;;;;4.60;1.75;;;;;;;23.53;30.90;96229.34;2081433;28;20654;-61
2023/03/18 09:50:36;;;;;;;2.20;1.20;;;;;;;23.34;32.17;96227.75;2082760;28;20230;-61
2023/03/18 09:51:46;;;;;;;3.95;1.20;;;;;;;23.11;31.49;96222.94;2084206;28;20223;-61
2023/03/18 09:53:05;;;;;;;3.58;1.30;;;;;;;23.13;31.49;96223.59;2083560;28;20251;-61
2023/03/18 09:54:21;;;;;;;3.15;1.13;;;;;;;23.55;31.37;96214.84;2081137;28;20224;-61
2023/03/18 09:55:28;;;;;;;6.03;1.40;;;;;;;23.24;31.67;96219.88;2084076;28;20258;-61
2023/03/18 09:56:34;;;;;;;5.93;1.20;;;;;;;23.58;31.00;96213.69;2084288;28;20201;-61
2023/03/18 09:57:41;;;;;;;10.40;1.40;;;;;;;24.09;30.83;96217.22;2084401;28;20205;-61
2023/03/18 09:58:50;;;;;;;5.47;1.40;;;;;;;23.54;31.09;96218.53;2083579;28;20288;-61
2023/03/18 09:59:59;;;;;;;7.28;1.52;;;;;;;23.63;30.98;96216.75;2084599;28;20201;-62
2023/03/18 10:01:06;;;;;;;8.15;1.25;;;;;;;22.87;32.55;96208.47;2080798;28;20205;-62
2023/03/18 10:02:21;;;;;;;2.45;1.15;;;;;;;22.58;33.37;96214.91;2081680;28;20209;-61
2023/03/18 10:03:32;;;;;;;4.45;1.25;;;;;;;22.62;33.37;96213.59;2084248;28;20196;-61
2023/03/18 10:04:45;;;;;;;4.32;1.10;;;;;;;22.82;32.90;96213.44;2080740;28;20279;-61
2023/03/18 10:05:53;;;;;;;3.88;0.95;;;;;;;22.96;32.57;96207.53;2087647;28;20208;-61
2023/03/18 10:07:05;;;;;;;6.75;1.40;;;;;;;22.30;33.90;96211.50;2096285;28;20200;-61
2023/03/18 10:08:42;;;;;;;5.15;1.27;;;;;;;21.58;33.59;96209.56;2096322;28;20256;-62
2023/03/18 10:09:58;;;;;;;9.18;2.22;;;;;;;22.31;33.23;96218.50;2067071;28;20226;-61
2023/03/18 10:11:05;;;;;;;4.53;1.05;;;;;;;22.45;32.86;96211.84;2084890;28;20535;-61
2023/03/18 10:12:19;;;;;;;3.47;1.13;;;;;;;22.57;32.23;96209.75;2083827;28;20197;-62
2023/03/18 10:13:28;;;;;;;2.55;1.20;;;;;;;22.59;31.89;96213.94;2085190;28;20685;-61
2023/03/18 10:14:40;;;;;;;2.33;1.10;;;;;;;23.25;31.59;96206.41;2081419;28;20256;-61
2023/03/18 10:15:47;;;;;;;9.23;1.27;;;;;;;22.33;32.54;96213.84;2082948;28;20201;-61
2023/03/18 10:16:54;;;;;;;5.60;1.30;;;;;;;22.58;32.15;96212.25;2082849;28;20211;-61
2023/03/18 10:18:14;;;;;;;7.80;1.30;;;;;;;23.37;31.10;96214.13;2085807;28;20749;-61
2023/03/18 10:19:15;;;;;;;3.05;1.10;;;;;;;23.17;32.00;96202.88;2087017;28;20220;-61
2023/03/18 10:20:45;;;;;;;4.55;1.05;;;;;;;20.58;34.35;96217.06;2084179;28;20201;-61
2023/03/18 10:22:14;;;;;;;4.60;1.00;;;;;;;20.52;35.04;96222.97;2080493;28;20225;-61
2023/03/18 10:23:31;;;;;;;4.35;1.48;;;;;;;20.51;34.67;96216.81;2084245;28;20202;-61
2023/03/18 10:24:45;;;;;;;2.95;1.10;;;;;;;20.32;34.48;96224.78;2082821;28;20236;-61
2023/03/18 10:26:00;;;;;;;6.00;1.13;;;;;;;21.25;33.70;96217.09;2082030;28;20196;-61
2023/03/18 10:27:14;;;;;;;5.90;1.90;;;;;;;20.84;34.92;96222.66;2085015;28;20201;-61
2023/03/18 10:28:39;;;;;;;3.90;1.10;;;;;;;21.98;33.61;96213.69;2082887;28;20197;-61
2023/03/18 10:30:27;;;;;;;4.55;1.70;;;;;;;21.99;33.11;96215.34;2082488;28;20253;-60
2023/03/18 10:31:43;;;;;;;2.30;1.08;;;;;;;21.80;33.43;96223.44;2079175;28;20227;-60
2023/03/18 10:32:50;;;;;;;4.70;1.10;;;;;;;21.80;32.89;96226.09;2083017;28;20193;-61
2023/03/18 10:34:00;;;;;;;7.32;1.30;;;;;;;21.46;33.43;96219.53;2083917;28;20227;-61
2023/03/18 10:35:08;;;;;;;2.30;1.00;;;;;;;21.73;33.58;96219.72;2083924;28;20246;-61
2023/03/18 10:36:22;;;;;;;3.55;1.10;;;;;;;22.06;33.56;96217.41;2082319;28;20200;-61
2023/03/18 10:37:44;;;;;;;3.75;1.60;;;;;;;21.73;32.82;96225.03;2081786;28;20253;-61
2023/03/18 10:38:49;;;;;;;7.57;1.60;;;;;;;21.43;33.59;96214.50;2083080;28;20712;-61
2023/03/18 10:39:52;;;;;;;6.00;1.50;;;;;;;21.01;33.96;96213.13;2096788;28;20624;-61
2023/03/18 10:40:55;;;;;;;4.18;1.45;;;;;;;21.37;34.15;96207.13;2090913;28;20234;-61
2023/03/18 10:42:01;;;;;;;4.72;1.60;;;;;;;20.63;34.41;96219.31;2076819;28;20208;-60
2023/03/18 10:43:09;;;;;;;4.00;1.20;;;;;;;20.34;34.90;96215.72;2080519;28;20192;-61
2023/03/18 10:44:29;;;;;;;3.92;1.45;;;;;;;21.14;33.91;96212.81;2082694;28;20220;-61
2023/03/18 10:45:33;;;;;;;3.63;1.13;;;;;;;21.11;33.60;96214.91;2083614;28;20197;-61
2023/03/18 10:46:36;;;;;;;7.80;1.30;;;;;;;21.48;33.54;96209.59;2083182;28;20204;-62
2023/03/18 10:47:43;;;;;;;3.80;1.55;;;;;;;22.22;32.94;96211.41;2082122;28;20204;-61
2023/03/18 10:48:56;;;;;;;4.28;1.27;;;;;;;21.95;32.92;96211.34;2081873;28;20201;-61
2023/03/18 10:50:20;;;;;;;6.15;1.13;;;;;;;22.30;32.47;96212.31;2082561;28;20196;-61
2023/03/18 10:51:21;;;;;;;4.68;1.20;;;;;;;22.56;31.89;96219.53;2083754;28;20227;-61
2023/03/18 10:52:33;;;;;;;6.10;1.50;;;;;;;22.75;31.37;96207.88;2084611;28;20652;-61
2023/03/18 10:53:51;;;;;;;7.18;1.30;;;;;;;21.87;33.07;96210.41;2083341;28;20212;-61
2023/03/18 10:54:53;;;;;;;3.00;1.15;;;;;;;22.45;32.38;96201.19;2084566;28;20216;-61
2023/03/18 10:56:06;;;;;;;5.60;2.80;;;;;;;23.04;32.12;96216.56;2080161;28;20197;-61
2023/03/18 10:57:13;;;;;;;4.47;1.40;;;;;;;23.36;31.19;96204.47;2082229;28;20196;-62
2023/03/18 10:58:17;;;;;;;3.90;1.10;;;;;;;22.45;32.29;96204.69;2081829;28;20654;-61
2023/03/18 10:59:22;;;;;;;6.20;1.55;;;;;;;21.76;33.28;96206.94;2086056;28;20282;-61
2023/03/18 11:00:32;;;;;;;3.30;1.70;;;;;;;22.00;33.12;96208.19;2086428;28;20196;-61
2023/03/18 11:01:36;;;;;;;4.88;1.35;;;;;;;21.79;32.73;96203.19;2084486;28;20823;-60
2023/03/18 11:02:38;;;;;;;5.90;1.92;;;;;;;21.21;33.12;96202.44;2082698;28;20204;-60
2023/03/18 11:03:46;;;;;;;3.97;1.00;;;;;;;21.26;33.35;96205.50;2082869;28;20201;-61
2023/03/18 11:04:53;;;;;;;3.65;1.33;;;;;;;20.24;34.76;96204.28;2084642;28;20219;-61
2023/03/18 11:06:01;;;;;;;5.10;1.65;;;;;;;19.54;35.87;96201.59;2083807;28;20200;-60
2023/03/18 11:07:11;;;;;;;5.03;1.30;;;;;;;19.78;36.31;96195.94;2084463;28;20230;-60
2023/03/18 11:08:39;;;;;;;2.72;1.10;;;;;;;21.41;33.87;96197.91;2084278;28;20193;-60
2023/03/18 11:09:41;;;;;;;7.88;1.50;;;;;;;21.76;33.16;96188.34;2083746;28;20225;-61
2023/03/18 11:10:44;;;;;;;8.90;2.10;;;;;;;22.38;32.83;96179.66;2083370;28;20285;-60
2023/03/18 11:11:56;;;;;;;4.18;1.63;;;;;;;22.67;32.79;96183.88;2081584;28;20373;-61
2023/03/18 11:13:01;;;;;;;4.90;1.25;;;;;;;22.07;33.19;96182.69;2082359;28;20201;-60
2023/03/18 11:14:06;;;;;;;2.28;1.50;;;;;;;22.91;31.93;96180.56;2082276;28;20228;-61
2023/03/18 11:15:11;;;;;;;4.35;1.40;;;;;;;21.13;34.19;96181.94;2082069;28;20209;-60
2023/03/18 11:16:24;;;;;;;4.47;1.38;;;;;;;20.51;35.91;96181.50;2083719;28;20250;-60
2023/03/18 11:17:35;;;;;;;3.40;1.33;;;;;;;21.13;34.51;96181.94;2084480;28;20196;-61
2023/03/18 11:18:37;;;;;;;4.65;1.33;;;;;;;21.79;33.89;96177.44;2085862;28;20288;-61
2023/03/18 11:19:58;;;;;;;5.25;1.30;;;;;;;21.71;33.90;96181.81;2084010;28;20275;-61
2023/03/18 11:21:02;;;;;;;5.32;1.17;;;;;;;21.77;33.54;96178.56;2084410;28;20552;-61
2023/03/18 11:22:10;;;;;;;3.10;1.35;;;;;;;22.64;32.09;96190.34;2084632;28;20594;-61
2023/03/18 11:25:02;;;;;;;4.05;1.30;;;;;;;21.69;33.24;96188.13;2082389;28;20220;-61
2023/03/18 11:26:07;;;;;;;4.55;1.40;;;;;;;21.66;33.68;96193.75;2083051;28;20200;-60
2023/03/18 11:27:14;;;;;;;5.40;1.40;;;;;;;22.24;32.39;96188.16;2085076;28;20665;-60
2023/03/18 11:28:22;;;;;;;6.43;1.10;;;;;;;22.62;32.52;96181.69;2082691;28;20514;-60
2023/03/18 11:29:31;;;;;;;4.85;1.55;;;;;;;22.59;31.60;96178.50;2083260;28;20224;-61
2023/03/18 11:30:55;;;;;;;5.90;1.45;;;;;;;22.14;32.29;96170.47;2082435;28;20229;-61
2023/03/18 11:31:58;;;;;;;5.95;1.95;;;;;;;22.00;32.63;96177.16;2082293;28;20602;-61
2023/03/18 11:33:14;;;;;;;10.93;1.98;;;;;;;21.61;32.86;96174.75;2083830;28;20200;-61
2023/03/18 11:34:18;;;;;;;4.82;1.05;;;;;;;21.00;33.46;96176.97;2083133;28;20242;-61
2023/03/18 11:35:23;;;;;;;4.45;1.50;;;;;;;21.46;33.08;96171.72;2079930;28;20200;-61
2023/03/18 11:36:27;;;;;;;2.35;1.00;;;;;;;22.04;32.52;96174.19;2083647;28;20240;-61
2023/03/18 11:37:31;;;;;;;2.47;1.10;;;;;;;21.90;32.25;96179.03;2083209;28;20224;-61
2023/03/18 11:38:35;;;;;;;4.30;1.38;;;;;;;22.70;31.92;96180.09;2083735;28;20201;-61
2023/03/18 11:39:40;;;;;;;5.53;1.63;;;;;;;24.34;30.88;96165.75;2080685;28;20224;-61
2023/03/18 11:40:42;;;;;;;3.13;1.30;;;;;;;24.40;30.67;96173.91;2081607;28;20228;-61
2023/03/18 11:41:44;;;;;;;2.83;1.20;;;;;;;24.63;30.28;96178.56;2080182;28;20614;-61
2023/03/18 11:42:47;;;;;;;4.15;1.25;;;;;;;24.31;30.20;96166.91;2082159;28;20806;-61
2023/03/18 11:44:02;;;;;;;3.13;1.17;;;;;;;24.44;29.53;96172.59;2081035;28;20196;-61
2023/03/18 11:45:19;;;;;;;3.20;1.30;;;;;;;24.04;29.96;96173.41;2083645;28;20193;-61
2023/03/18 11:46:25;;;;;;;5.50;1.40;;;;;;;24.21;29.88;96176.91;2082352;28;20196;-62
2023/03/18 11:47:31;;;;;;;3.35;1.00;;;;;;;24.60;29.35;96168.25;2082465;28;20203;-61
2023/03/18 11:48:35;;;;;;;4.40;1.35;;;;;;;24.07;29.82;96181.06;2084292;28;20561;-61
2023/03/18 11:49:37;;;;;;;4.18;1.45;;;;;;;23.61;30.12;96181.41;2079130;28;20320;-61
2023/03/18 11:50:52;;;;;;;3.63;1.10;;;;;;;23.42;30.49;96175.34;2080440;28;20653;-61
2023/03/18 11:52:14;;;;;;;8.02;1.52;;;;;;;23.66;30.16;96178.28;2083708;28;20231;-62
2023/03/18 11:53:28;;;;;;;3.70;1.25;;;;;;;23.37;29.52;96180.31;2083247;28;20197;-61
2023/03/18 11:54:58;;;;;;;2.50;1.17;;;;;;;23.04;30.32;96171.31;2083565;28;20854;-61
2023/03/18 11:56:15;;;;;;;3.15;1.20;;;;;;;22.79;30.50;96169.34;2081942;28;20205;-61
2023/03/18 11:57:26;;;;;;;1.80;0.95;;;;;;;22.44;30.46;96165.75;2079931;28;20418;-61
2023/03/18 11:58:27;;;;;;;7.82;1.58;;;;;;;22.15;30.52;96166.81;2081221;28;20208;-61
2023/03/18 11:59:41;;;;;;;5.47;1.45;;;;;;;22.43;30.55;96164.09;2084285;28;20657;-61
2023/03/18 12:01:00;;;;;;;3.58;1.10;;;;;;;22.78;30.44;96162.34;2084015;28;20203;-61
2023/03/18 12:02:24;;;;;;;2.72;1.30;;;;;;;22.75;30.54;96159.16;2084970;28;20247;-60
2023/03/18 12:03:38;;;;;;;4.03;1.55;;;;;;;22.46;30.37;96170.91;2084016;28;20201;-61
2023/03/18 12:05:00;;;;;;;3.05;1.15;;;;;;;22.04;30.06;96158.25;2081368;28;20827;-61
2023/03/18 12:06:04;;;;;;;3.75;0.95;;;;;;;21.83;30.75;96164.69;2083621;28;20196;-61
2023/03/18 12:07:20;;;;;;;4.60;1.20;;;;;;;21.01;31.26;96157.41;2084993;28;20197;-60
2023/03/18 12:08:25;;;;;;;4.50;1.08;;;;;;;21.24;31.06;96161.50;2082829;28;20189;-60
2023/03/18 12:09:55;;;;;;;6.95;1.10;;;;;;;21.80;30.33;96159.66;2084983;28;20307;-61
2023/03/18 12:11:18;;;;;;;3.38;1.38;;;;;;;21.81;30.38;96151.56;2084549;28;20239;-61
2023/03/18 12:12:45;;;;;;;6.50;1.33;;;;;;;21.47;30.72;96144.19;2084385;28;20279;-61
2023/03/18 12:14:14;;;;;;;2.30;1.10;;;;;;;21.23;31.06;96144.75;2081820;28;20196;-61
2023/03/18 12:15:44;;;;;;;8.73;1.10;;;;;;;21.20;30.76;96140.56;2087226;28;20351;-60
2023/03/18 12:16:55;;;;;;;2.90;1.20;;;;;;;21.06;30.88;96150.81;2085464;28;20201;-61
2023/03/18 12:18:14;;;;;;;4.25;1.27;;;;;;;21.40;31.26;96140.44;2084502;28;20201;-61
2023/03/18 12:19:53;;;;;;;5.80;1.10;;;;;;;20.90;31.22;96144.31;2085109;28;20235;-60
2023/03/18 12:21:03;;;;;;;3.83;1.38;;;;;;;20.95;31.56;96141.22;2081948;28;20698;-61
2023/03/18 12:22:23;;;;;;;6.40;1.27;;;;;;;20.76;31.52;96137.66;2099313;28;20626;-60
2023/03/18 12:23:41;;;;;;;2.63;0.88;;;;;;;20.19;31.38;96125.16;2092413;28;20333;-61
2023/03/18 12:25:24;;;;;;;3.42;1.55;;;;;;;20.30;31.54;96140.09;2082502;28;20691;-60
2023/03/18 12:26:39;;;;;;;2.72;0.93;;;;;;;20.53;31.40;96140.63;2084801;28;20289;-61
2023/03/18 12:28:09;;;;;;;4.20;1.10;;;;;;;20.85;31.16;96142.09;2084197;28;20207;-60
2023/03/18 12:29:30;;;;;;;2.53;1.00;;;;;;;20.70;31.36;96141.72;2082368;28;20394;-60
2023/03/18 12:30:37;;;;;;;4.15;1.27;;;;;;;21.40;31.18;96131.66;2084068;28;20200;-61